createdAt,value
2018-06-29T00:01:50.617Z,21.65
2018-06-29T00:06:43.689Z,21.60
2018-06-29T00:11:36.701Z,21.53
2018-06-29T00:16:29.781Z,21.36
2018-06-29T00:21:22.833Z,21.27
2018-06-29T00:26:15.865Z,21.19
2018-06-29T00:31:08.814Z,21.15
2018-06-29T00:36:01.834Z,21.09
2018-06-29T00:40:54.881Z,21.02
2018-06-29T00:45:47.808Z,20.98
2018-06-29T00:50:40.944Z,20.93
2018-06-29T00:55:33.753Z,20.86
2018-06-29T01:00:26.826Z,20.83
2018-06-29T01:05:19.926Z,20.79
2018-06-29T01:10:12.970Z,20.71
2018-06-29T01:15:06.212Z,20.69
2018-06-29T01:19:59.210Z,20.63
2018-06-29T01:24:52.359Z,20.57
2018-06-29T01:29:45.382Z,20.52
2018-06-29T01:34:38.417Z,20.45
2018-06-29T01:39:31.426Z,20.37
2018-06-29T01:44:24.489Z,20.31
2018-06-29T01:49:17.488Z,20.26
2018-06-29T01:54:10.545Z,20.21
2018-06-29T01:59:03.695Z,20.14
2018-06-29T02:03:56.674Z,20.07
2018-06-29T02:08:49.808Z,20.02
2018-06-29T02:13:42.873Z,19.94
2018-06-29T02:18:35.977Z,19.90
2018-06-29T02:23:29.131Z,19.86
2018-06-29T02:28:22.223Z,19.80
2018-06-29T02:33:15.186Z,19.72
2018-06-29T02:38:08.348Z,19.66
2018-06-29T02:43:01.571Z,19.64
2018-06-29T02:47:54.682Z,19.53
2018-06-29T02:52:47.766Z,19.46
2018-06-29T02:57:40.932Z,19.38
2018-06-29T03:02:34.032Z,19.32
2018-06-29T03:07:27.120Z,19.30
2018-06-29T03:12:20.301Z,19.24
2018-06-29T03:17:13.310Z,19.19
2018-06-29T03:22:06.332Z,19.15
2018-06-29T03:26:59.412Z,19.14
2018-06-29T03:31:52.491Z,19.11
2018-06-29T03:36:45.497Z,19.11
2018-06-29T03:41:38.578Z,19.13
2018-06-29T03:46:31.609Z,19.13
2018-06-29T03:51:24.625Z,19.10
2018-06-29T03:56:17.716Z,19.09
2018-06-29T04:01:10.788Z,19.11
2018-06-29T04:06:03.930Z,19.14
2018-06-29T04:10:57.042Z,19.15
2018-06-29T04:15:50.121Z,19.19
2018-06-29T04:20:43.279Z,19.19
2018-06-29T04:25:36.383Z,19.21
2018-06-29T04:30:29.481Z,19.24
2018-06-29T04:35:22.538Z,19.26
2018-06-29T04:40:15.589Z,19.32
2018-06-29T04:45:08.681Z,19.38
2018-06-29T04:50:01.664Z,19.44
2018-06-29T04:54:54.812Z,19.49
2018-06-29T04:59:47.906Z,19.56
2018-06-29T05:04:40.950Z,19.64
2018-06-29T05:09:34.113Z,19.70
2018-06-29T05:14:27.192Z,19.75
2018-06-29T05:19:20.343Z,19.82
2018-06-29T05:24:13.533Z,19.86
2018-06-29T05:29:06.571Z,19.94
2018-06-29T05:33:59.743Z,20.00
2018-06-29T05:38:52.820Z,20.05
2018-06-29T05:43:45.880Z,20.10
2018-06-29T05:48:38.937Z,20.17
2018-06-29T05:53:31.968Z,20.25
2018-06-29T05:58:25.013Z,20.33
2018-06-29T06:03:18.011Z,20.41
2018-06-29T06:08:11.257Z,20.49
2018-06-29T06:13:04.309Z,20.56
2018-06-29T06:17:57.416Z,20.61
2018-06-29T06:22:50.466Z,20.67
2018-06-29T06:27:43.548Z,20.74
2018-06-29T06:32:36.630Z,20.82
2018-06-29T06:37:29.913Z,20.91
2018-06-29T06:42:22.947Z,21.00
2018-06-29T06:47:16.006Z,21.10
2018-06-29T06:52:09.126Z,21.20
2018-06-29T06:57:02.271Z,21.30
2018-06-29T07:01:55.362Z,21.40
2018-06-29T07:06:48.481Z,21.51
2018-06-29T07:11:41.498Z,21.59
2018-06-29T07:16:34.693Z,21.68
2018-06-29T07:21:27.790Z,21.80
2018-06-29T07:26:20.912Z,22.01
2018-06-29T07:31:13.982Z,22.93
2018-06-29T07:36:06.985Z,24.87
2018-06-29T07:40:59.982Z,26.74
2018-06-29T07:45:53.117Z,28.18
2018-06-29T07:50:46.197Z,29.15
2018-06-29T07:55:39.329Z,29.91
2018-06-29T08:00:32.422Z,30.62
2018-06-29T08:05:25.485Z,31.04
2018-06-29T08:10:18.703Z,31.38
2018-06-29T08:15:11.810Z,31.35
2018-06-29T08:20:05.083Z,31.24
2018-06-29T08:25:09.732Z,31.16
2018-06-29T08:30:03.437Z,31.18
2018-06-29T08:34:56.537Z,31.11
2018-06-29T08:39:49.659Z,30.95
2018-06-29T08:44:42.686Z,30.74
2018-06-29T08:49:35.735Z,30.56
2018-06-29T08:54:28.968Z,30.38
2018-06-29T08:59:22.084Z,30.18
2018-06-29T09:04:15.074Z,30.08
2018-06-29T09:09:08.916Z,30.01
2018-06-29T09:14:02.073Z,30.03
2018-06-29T09:18:55.112Z,30.00
2018-06-29T09:23:48.116Z,29.69
2018-06-29T09:28:41.373Z,29.59
2018-06-29T09:33:34.555Z,29.60
2018-06-29T09:38:27.730Z,29.49
2018-06-29T09:43:20.805Z,29.36
2018-06-29T09:48:13.990Z,29.13
2018-06-29T09:53:07.071Z,29.14
2018-06-29T09:58:00.269Z,29.39
2018-06-29T10:02:53.556Z,29.67
2018-06-29T10:07:46.735Z,29.87
2018-06-29T10:12:39.856Z,29.87
2018-06-29T10:17:32.958Z,29.73
2018-06-29T10:22:26.006Z,29.78
2018-06-29T10:27:19.064Z,29.68
2018-06-29T10:32:12.236Z,29.58
2018-06-29T10:37:05.403Z,29.73
2018-06-29T10:41:58.422Z,29.98
2018-06-29T10:46:51.407Z,30.29
2018-06-29T10:51:44.627Z,30.52
2018-06-29T10:56:37.635Z,30.67
2018-06-29T11:01:30.753Z,30.80
2018-06-29T11:06:23.804Z,30.92
2018-06-29T11:11:16.783Z,31.04
2018-06-29T11:16:09.937Z,31.05
2018-06-29T11:21:03.090Z,30.89
2018-06-29T11:25:56.199Z,30.76
2018-06-29T11:30:49.179Z,30.71
2018-06-29T11:35:42.288Z,30.72
2018-06-29T11:40:35.241Z,30.65
2018-06-29T11:45:28.361Z,30.61
2018-06-29T11:50:21.423Z,30.75
2018-06-29T11:55:14.641Z,30.90
2018-06-29T12:00:07.676Z,31.00
2018-06-29T12:05:00.717Z,31.28
2018-06-29T12:09:54.004Z,31.52
2018-06-29T12:14:47.163Z,31.66
2018-06-29T12:19:40.561Z,31.75
2018-06-29T12:24:33.625Z,31.82
2018-06-29T12:29:26.635Z,31.90
2018-06-29T12:34:19.626Z,31.98
2018-06-29T12:39:12.713Z,32.07
2018-06-29T12:44:05.777Z,32.22
2018-06-29T12:48:58.991Z,32.33
2018-06-29T12:53:52.121Z,32.38
2018-06-29T12:58:45.179Z,32.50
2018-06-29T13:03:38.305Z,32.58
2018-06-29T13:08:31.424Z,32.66
2018-06-29T13:13:24.459Z,32.62
2018-06-29T13:18:17.524Z,32.55
2018-06-29T13:23:10.602Z,32.51
2018-06-29T13:28:03.732Z,32.59
2018-06-29T13:32:57.058Z,32.66
2018-06-29T13:37:50.160Z,32.68
2018-06-29T13:42:43.127Z,32.62
2018-06-29T13:47:36.231Z,32.60
2018-06-29T13:52:29.222Z,32.50
2018-06-29T13:57:22.251Z,32.44
2018-06-29T14:02:15.567Z,32.45
2018-06-29T14:07:08.643Z,32.46
2018-06-29T14:12:01.785Z,32.44
2018-06-29T14:16:54.824Z,32.43
2018-06-29T14:21:47.904Z,32.42
2018-06-29T14:26:40.967Z,32.37
2018-06-29T14:31:34.073Z,32.32
2018-06-29T14:36:27.247Z,32.30
2018-06-29T14:41:20.268Z,32.20
2018-06-29T14:46:13.335Z,32.16
2018-06-29T14:51:06.381Z,32.18
2018-06-29T14:55:59.441Z,32.22
2018-06-29T15:00:52.620Z,32.22
2018-06-29T15:05:45.690Z,32.20
2018-06-29T15:10:39.001Z,32.15
2018-06-29T15:15:32.008Z,32.15
2018-06-29T15:20:25.019Z,32.07
2018-06-29T15:25:18.126Z,31.95
2018-06-29T15:30:11.237Z,31.83
2018-06-29T15:35:04.544Z,31.61
2018-06-29T15:39:57.626Z,31.31
2018-06-29T15:44:50.681Z,31.03
2018-06-29T15:49:43.758Z,30.74
2018-06-29T15:54:36.851Z,30.46
2018-06-29T15:59:30.014Z,30.24
2018-06-29T16:04:23.046Z,30.07
2018-06-29T16:09:16.195Z,29.90
2018-06-29T16:14:09.241Z,29.72
2018-06-29T16:19:02.345Z,29.48
2018-06-29T16:23:55.370Z,29.27
2018-06-29T16:28:48.442Z,29.09
2018-06-29T16:33:41.426Z,28.97
2018-06-29T16:38:34.541Z,28.79
2018-06-29T16:43:27.647Z,28.62
2018-06-29T16:48:20.684Z,28.47
2018-06-29T16:53:13.612Z,28.41
2018-06-29T16:58:06.844Z,28.36
2018-06-29T17:02:59.982Z,28.29
2018-06-29T17:07:53.588Z,28.19
2018-06-29T17:12:46.709Z,28.07
2018-06-29T17:17:39.764Z,27.93
2018-06-29T17:22:32.907Z,27.83
2018-06-29T17:27:26.007Z,27.76
2018-06-29T17:32:19.046Z,27.64
2018-06-29T17:37:12.250Z,27.47
2018-06-29T17:42:05.569Z,27.35
2018-06-29T17:46:58.978Z,27.21
2018-06-29T17:51:52.009Z,27.09
2018-06-29T17:56:45.084Z,27.01
2018-06-29T18:01:38.126Z,26.88
2018-06-29T18:06:31.827Z,26.79
2018-06-29T18:11:24.840Z,26.70
2018-06-29T18:16:17.953Z,26.56
2018-06-29T18:21:11.148Z,26.44
2018-06-29T18:26:04.278Z,26.34
2018-06-29T18:30:57.329Z,26.21
2018-06-29T18:35:50.500Z,26.10
2018-06-29T18:40:43.610Z,26.00
2018-06-29T18:45:36.730Z,25.89
2018-06-29T18:50:29.753Z,25.79
2018-06-29T18:55:22.851Z,25.69
2018-06-29T19:00:16.027Z,25.60
2018-06-29T19:05:09.174Z,25.59
2018-06-29T19:10:02.211Z,25.50
2018-06-29T19:14:55.401Z,25.25
2018-06-29T19:19:48.491Z,25.00
2018-06-29T19:24:41.582Z,24.83
2018-06-29T19:29:34.731Z,24.65
2018-06-29T19:34:27.935Z,24.53
2018-06-29T19:39:20.961Z,24.45
2018-06-29T19:44:14.030Z,24.34
2018-06-29T19:49:08.095Z,24.20
2018-06-29T19:54:01.261Z,24.12
2018-06-29T19:58:54.520Z,24.00
2018-06-29T20:03:47.551Z,23.95
2018-06-29T20:08:40.557Z,23.88
2018-06-29T20:13:33.641Z,23.68
2018-06-29T20:18:26.731Z,23.48
2018-06-29T20:23:19.838Z,23.27
2018-06-29T20:28:13.697Z,23.08
2018-06-29T20:33:07.115Z,22.90
2018-06-29T20:38:00.348Z,22.78
2018-06-29T20:42:53.486Z,22.62
2018-06-29T20:47:46.460Z,22.49
2018-06-29T20:52:40.630Z,22.41
2018-06-29T20:57:33.753Z,22.30
2018-06-29T21:02:26.680Z,22.18
2018-06-29T21:07:19.716Z,22.06
2018-06-29T21:12:12.710Z,21.91
2018-06-29T21:17:05.757Z,21.80
2018-06-29T21:21:58.799Z,21.68
2018-06-29T21:26:51.819Z,21.56
2018-06-29T21:31:44.918Z,21.43
2018-06-29T21:36:37.875Z,21.32
2018-06-29T21:41:30.914Z,21.22
2018-06-29T21:46:24.004Z,21.09
2018-06-29T21:51:17.053Z,20.98
2018-06-29T21:56:10.146Z,20.84
2018-06-29T22:01:03.195Z,20.71
2018-06-29T22:05:56.267Z,20.60
2018-06-29T22:10:49.265Z,20.48
2018-06-29T22:15:42.387Z,20.37
2018-06-29T22:20:35.458Z,20.28
2018-06-29T22:25:28.471Z,20.16
2018-06-29T22:30:22.351Z,20.05
2018-06-29T22:35:15.548Z,19.95
2018-06-29T22:40:08.907Z,19.85
2018-06-29T22:45:02.045Z,19.69
2018-06-29T22:49:55.094Z,19.60
2018-06-29T22:54:48.102Z,19.53
2018-06-29T22:59:41.237Z,19.43
2018-06-29T23:04:34.191Z,19.33
2018-06-29T23:09:27.170Z,19.26
2018-06-29T23:14:20.239Z,19.13
2018-06-29T23:19:13.347Z,19.04
2018-06-29T23:24:06.338Z,18.96
2018-06-29T23:28:59.333Z,18.85
2018-06-29T23:33:52.364Z,18.76
2018-06-29T23:38:45.259Z,18.65
2018-06-29T23:43:38.334Z,18.53
2018-06-29T23:48:31.484Z,18.48
2018-06-29T23:53:24.508Z,18.41
2018-06-29T23:58:17.641Z,18.31
